Terminal Aerodrome Forecast
Issued by NWS

Home | Current Version | Previous Version | Text Only | Print | Product List | Glossary On
Versions: 1 2 3 4 5 6 7 8 9 10 11 12 13 14 15 16 17 18
000
FTAK31 PAJN 162300
TAFAGY
TAF
PAGY 162320Z 1700/1724 22005KT P6SM SCT005 BKN020 OVC060
     FM170400 VRB03KT P6SM SCT020 BKN100
     FM171200 20003KT P6SM VCFG SCT002 BKN025
     FM171800 20007KT P6SM BKN060
      AMD LTD TO CLD VIS AND WIND=

USA.gov is the U.S. government's official web portal to all federal, state and local government web resources and services.